Holbrook, Arizona
Current Conditions -  °F | °C
As of 10:56 AM on Friday 24 Oct 2014 (Local Time) from KINW Reporting Station
Clear Clear  
Wind Chill: 22°   Ceiling: Unl
Heat Index: 22°   Visibility: 10mi
Dew Point:   Wind: 9mph
Humidity: 32%   Direction: 120°ESE
Pressure: 30.31"   Gusts: NA
Location:  34.9°N, 110.16°W
Report Text: KINW 241756Z AUTO 12008KT 10SM CLR 22/04 A3031 RMK AO2 SLP217 T02170044 10217 20044 58002
Loading
Personal Weather Stations






























Interactive Weather Map
Tropical Storm Tracking
New forecast layout! Learn more

10-Day Weather Forecast

Advertisements
Track Severe Weather on mobile